sensor_id;sensor_type;location;lat;lon;timestamp;P1;durP1;ratioP1;P2;durP2;ratioP2
4986;SDS011;12674;51.500;7.552;2024-03-17T00:00:49;7.23;;;3.80;;
4986;SDS011;12674;51.500;7.552;2024-03-17T00:02:50;9.60;;;3.70;;
4986;SDS011;12674;51.500;7.552;2024-03-17T00:04:52;9.97;;;3.77;;
4986;SDS011;12674;51.500;7.552;2024-03-17T00:06:54;7.33;;;3.83;;
4986;SDS011;12674;51.500;7.552;2024-03-17T00:08:55;4.80;;;3.30;;
4986;SDS011;12674;51.500;7.552;2024-03-17T00:10:58;12.20;;;4.27;;
4986;SDS011;12674;51.500;7.552;2024-03-17T00:12:58;8.30;;;3.73;;
4986;SDS011;12674;51.500;7.552;2024-03-17T00:15:01;16.40;;;4.30;;
4986;SDS011;12674;51.500;7.552;2024-03-17T00:17:02;6.90;;;4.33;;
4986;SDS011;12674;51.500;7.552;2024-03-17T00:19:04;8.67;;;4.60;;
4986;SDS011;12674;51.500;7.552;2024-03-17T00:21:07;12.70;;;4.70;;
4986;SDS011;12674;51.500;7.552;2024-03-17T00:23:09;11.03;;;3.80;;
4986;SDS011;12674;51.500;7.552;2024-03-17T00:25:12;9.10;;;4.60;;
4986;SDS011;12674;51.500;7.552;2024-03-17T00:27:14;9.23;;;3.77;;
4986;SDS011;12674;51.500;7.552;2024-03-17T00:29:15;4.63;;;3.90;;
4986;SDS011;12674;51.500;7.552;2024-03-17T00:31:17;9.03;;;4.50;;
4986;SDS011;12674;51.500;7.552;2024-03-17T00:33:17;10.70;;;4.37;;
4986;SDS011;12674;51.500;7.552;2024-03-17T00:35:20;10.87;;;4.60;;
4986;SDS011;12674;51.500;7.552;2024-03-17T00:37:22;9.87;;;4.00;;
4986;SDS011;12674;51.500;7.552;2024-03-17T00:39:24;22.20;;;4.73;;
4986;SDS011;12674;51.500;7.552;2024-03-17T00:41:26;9.70;;;4.57;;
4986;SDS011;12674;51.500;7.552;2024-03-17T00:43:27;8.20;;;4.00;;
4986;SDS011;12674;51.500;7.552;2024-03-17T00:45:28;8.27;;;4.30;;
4986;SDS011;12674;51.500;7.552;2024-03-17T00:47:30;8.60;;;4.70;;
4986;SDS011;12674;51.500;7.552;2024-03-17T00:49:31;10.60;;;4.73;;
4986;SDS011;12674;51.500;7.552;2024-03-17T00:51:33;8.93;;;5.40;;
4986;SDS011;12674;51.500;7.552;2024-03-17T00:53:35;10.83;;;5.00;;
4986;SDS011;12674;51.500;7.552;2024-03-17T00:55:37;6.90;;;5.23;;
4986;SDS011;12674;51.500;7.552;2024-03-17T00:57:38;11.20;;;4.97;;
4986;SDS011;12674;51.500;7.552;2024-03-17T00:59:40;7.80;;;4.63;;
4986;SDS011;12674;51.500;7.552;2024-03-17T01:01:43;7.20;;;4.10;;
4986;SDS011;12674;51.500;7.552;2024-03-17T01:03:45;6.57;;;4.40;;
4986;SDS011;12674;51.500;7.552;2024-03-17T01:05:46;10.17;;;4.60;;
4986;SDS011;12674;51.500;7.552;2024-03-17T01:07:48;8.27;;;4.67;;
4986;SDS011;12674;51.500;7.552;2024-03-17T01:09:51;8.83;;;4.80;;
4986;SDS011;12674;51.500;7.552;2024-03-17T01:11:55;8.07;;;4.40;;
4986;SDS011;12674;51.500;7.552;2024-03-17T01:13:56;10.57;;;4.73;;
4986;SDS011;12674;51.500;7.552;2024-03-17T01:15:58;11.77;;;4.87;;
4986;SDS011;12674;51.500;7.552;2024-03-17T01:17:59;11.40;;;4.23;;
4986;SDS011;12674;51.500;7.552;2024-03-17T01:20:01;6.77;;;3.90;;
4986;SDS011;12674;51.500;7.552;2024-03-17T01:22:03;10.13;;;4.50;;
4986;SDS011;12674;51.500;7.552;2024-03-17T01:24:05;8.60;;;4.17;;
4986;SDS011;12674;51.500;7.552;2024-03-17T01:26:08;8.10;;;4.20;;
4986;SDS011;12674;51.500;7.552;2024-03-17T01:28:09;7.17;;;4.77;;
4986;SDS011;12674;51.500;7.552;2024-03-17T01:30:11;6.97;;;3.57;;
4986;SDS011;12674;51.500;7.552;2024-03-17T01:32:13;11.27;;;4.13;;
4986;SDS011;12674;51.500;7.552;2024-03-17T01:34:15;13.83;;;3.63;;
4986;SDS011;12674;51.500;7.552;2024-03-17T01:36:16;9.13;;;3.03;;
4986;SDS011;12674;51.500;7.552;2024-03-17T01:38:17;9.47;;;3.50;;
4986;SDS011;12674;51.500;7.552;2024-03-17T01:40:19;7.67;;;4.07;;
4986;SDS011;12674;51.500;7.552;2024-03-17T01:42:23;7.20;;;3.77;;
4986;SDS011;12674;51.500;7.552;2024-03-17T01:44:25;4.10;;;3.20;;
4986;SDS011;12674;51.500;7.552;2024-03-17T01:46:27;9.17;;;4.20;;
4986;SDS011;12674;51.500;7.552;2024-03-17T01:48:29;6.60;;;3.53;;
4986;SDS011;12674;51.500;7.552;2024-03-17T01:50:31;5.10;;;3.57;;
4986;SDS011;12674;51.500;7.552;2024-03-17T01:52:35;9.33;;;3.23;;
4986;SDS011;12674;51.500;7.552;2024-03-17T01:54:36;6.13;;;4.00;;
4986;SDS011;12674;51.500;7.552;2024-03-17T01:56:39;7.87;;;3.63;;
4986;SDS011;12674;51.500;7.552;2024-03-17T01:58:41;8.67;;;3.60;;
4986;SDS011;12674;51.500;7.552;2024-03-17T02:00:45;4.97;;;3.60;;
4986;SDS011;12674;51.500;7.552;2024-03-17T02:02:46;5.03;;;3.67;;
4986;SDS011;12674;51.500;7.552;2024-03-17T02:04:48;6.20;;;3.50;;
4986;SDS011;12674;51.500;7.552;2024-03-17T02:06:49;4.60;;;3.20;;
4986;SDS011;12674;51.500;7.552;2024-03-17T02:08:52;6.13;;;4.07;;
4986;SDS011;12674;51.500;7.552;2024-03-17T02:10:54;8.73;;;4.03;;
4986;SDS011;12674;51.500;7.552;2024-03-17T02:12:56;5.60;;;3.93;;
4986;SDS011;12674;51.500;7.552;2024-03-17T02:14:58;9.70;;;4.03;;
4986;SDS011;12674;51.500;7.552;2024-03-17T02:17:00;9.43;;;4.63;;
4986;SDS011;12674;51.500;7.552;2024-03-17T02:19:02;5.00;;;3.63;;
4986;SDS011;12674;51.500;7.552;2024-03-17T02:21:04;11.03;;;4.67;;
4986;SDS011;12674;51.500;7.552;2024-03-17T02:23:07;10.83;;;4.53;;
4986;SDS011;12674;51.500;7.552;2024-03-17T02:25:09;5.00;;;3.93;;
4986;SDS011;12674;51.500;7.552;2024-03-17T02:27:11;12.70;;;3.40;;
4986;SDS011;12674;51.500;7.552;2024-03-17T02:29:13;11.83;;;4.60;;
4986;SDS011;12674;51.500;7.552;2024-03-17T02:31:14;7.07;;;4.30;;
4986;SDS011;12674;51.500;7.552;2024-03-17T02:33:17;6.40;;;4.10;;
4986;SDS011;12674;51.500;7.552;2024-03-17T02:35:18;11.90;;;4.53;;
4986;SDS011;12674;51.500;7.552;2024-03-17T02:37:20;9.07;;;3.50;;
4986;SDS011;12674;51.500;7.552;2024-03-17T02:39:22;8.07;;;4.17;;
4986;SDS011;12674;51.500;7.552;2024-03-17T02:41:34;6.80;;;4.10;;
4986;SDS011;12674;51.500;7.552;2024-03-17T02:43:36;7.70;;;3.73;;
4986;SDS011;12674;51.500;7.552;2024-03-17T02:45:37;6.83;;;3.70;;
4986;SDS011;12674;51.500;7.552;2024-03-17T02:47:39;6.63;;;3.97;;
4986;SDS011;12674;51.500;7.552;2024-03-17T02:49:41;5.40;;;3.57;;
4986;SDS011;12674;51.500;7.552;2024-03-17T02:51:44;6.90;;;4.50;;
4986;SDS011;12674;51.500;7.552;2024-03-17T02:53:47;5.73;;;3.90;;
4986;SDS011;12674;51.500;7.552;2024-03-17T02:55:51;9.13;;;4.27;;
4986;SDS011;12674;51.500;7.552;2024-03-17T02:57:53;8.50;;;4.80;;
4986;SDS011;12674;51.500;7.552;2024-03-17T02:59:55;11.20;;;5.70;;
4986;SDS011;12674;51.500;7.552;2024-03-17T03:01:57;7.40;;;4.43;;
4986;SDS011;12674;51.500;7.552;2024-03-17T03:04:00;11.87;;;4.80;;
4986;SDS011;12674;51.500;7.552;2024-03-17T03:06:01;9.77;;;4.60;;
4986;SDS011;12674;51.500;7.552;2024-03-17T03:08:05;9.60;;;4.17;;
4986;SDS011;12674;51.500;7.552;2024-03-17T03:10:07;6.90;;;3.97;;
4986;SDS011;12674;51.500;7.552;2024-03-17T03:12:12;8.13;;;4.00;;
4986;SDS011;12674;51.500;7.552;2024-03-17T03:14:14;7.27;;;4.60;;
4986;SDS011;12674;51.500;7.552;2024-03-17T03:16:16;7.87;;;4.37;;
4986;SDS011;12674;51.500;7.552;2024-03-17T03:18:19;13.93;;;4.70;;
4986;SDS011;12674;51.500;7.552;2024-03-17T03:20:20;5.40;;;4.20;;
4986;SDS011;12674;51.500;7.552;2024-03-17T03:22:23;8.00;;;4.67;;
4986;SDS011;12674;51.500;7.552;2024-03-17T03:24:24;6.57;;;4.00;;
4986;SDS011;12674;51.500;7.552;2024-03-17T03:26:27;7.10;;;4.90;;
4986;SDS011;12674;51.500;7.552;2024-03-17T03:28:31;9.03;;;4.47;;
4986;SDS011;12674;51.500;7.552;2024-03-17T03:30:35;8.00;;;4.97;;
4986;SDS011;12674;51.500;7.552;2024-03-17T03:32:36;7.73;;;4.97;;
4986;SDS011;12674;51.500;7.552;2024-03-17T03:34:39;8.17;;;4.57;;
4986;SDS011;12674;51.500;7.552;2024-03-17T03:36:41;6.50;;;4.77;;
4986;SDS011;12674;51.500;7.552;2024-03-17T03:38:42;7.60;;;4.80;;
4986;SDS011;12674;51.500;7.552;2024-03-17T03:40:44;6.60;;;4.40;;
4986;SDS011;12674;51.500;7.552;2024-03-17T03:42:45;9.10;;;4.60;;
4986;SDS011;12674;51.500;7.552;2024-03-17T03:44:48;6.93;;;4.60;;
4986;SDS011;12674;51.500;7.552;2024-03-17T03:46:50;10.43;;;4.60;;
4986;SDS011;12674;51.500;7.552;2024-03-17T03:48:53;5.47;;;4.40;;
4986;SDS011;12674;51.500;7.552;2024-03-17T03:50:55;12.93;;;4.60;;
4986;SDS011;12674;51.500;7.552;2024-03-17T03:52:57;8.67;;;5.00;;
4986;SDS011;12674;51.500;7.552;2024-03-17T03:54:58;7.20;;;4.90;;
4986;SDS011;12674;51.500;7.552;2024-03-17T03:57:00;7.97;;;5.37;;
4986;SDS011;12674;51.500;7.552;2024-03-17T03:59:03;11.90;;;4.70;;
4986;SDS011;12674;51.500;7.552;2024-03-17T04:01:07;5.83;;;4.17;;
4986;SDS011;12674;51.500;7.552;2024-03-17T04:03:11;6.97;;;4.90;;
4986;SDS011;12674;51.500;7.552;2024-03-17T04:05:13;13.43;;;4.97;;
4986;SDS011;12674;51.500;7.552;2024-03-17T04:07:15;6.30;;;4.17;;
4986;SDS011;12674;51.500;7.552;2024-03-17T04:09:17;7.47;;;4.83;;
4986;SDS011;12674;51.500;7.552;2024-03-17T04:11:20;5.50;;;4.30;;
4986;SDS011;12674;51.500;7.552;2024-03-17T04:13:22;8.33;;;4.70;;
4986;SDS011;12674;51.500;7.552;2024-03-17T04:15:23;15.90;;;5.70;;
4986;SDS011;12674;51.500;7.552;2024-03-17T04:17:26;5.87;;;4.67;;
4986;SDS011;12674;51.500;7.552;2024-03-17T04:19:28;6.93;;;5.43;;
4986;SDS011;12674;51.500;7.552;2024-03-17T04:21:30;8.03;;;5.20;;
4986;SDS011;12674;51.500;7.552;2024-03-17T04:23:32;6.17;;;4.60;;
4986;SDS011;12674;51.500;7.552;2024-03-17T04:25:34;7.20;;;4.40;;
4986;SDS011;12674;51.500;7.552;2024-03-17T04:27:35;10.43;;;5.73;;
4986;SDS011;12674;51.500;7.552;2024-03-17T04:29:37;9.07;;;5.67;;
4986;SDS011;12674;51.500;7.552;2024-03-17T04:31:39;9.70;;;5.60;;
4986;SDS011;12674;51.500;7.552;2024-03-17T04:33:43;9.27;;;5.57;;
4986;SDS011;12674;51.500;7.552;2024-03-17T04:35:46;11.20;;;5.23;;
4986;SDS011;12674;51.500;7.552;2024-03-17T04:37:47;7.77;;;5.10;;
4986;SDS011;12674;51.500;7.552;2024-03-17T04:39:49;9.13;;;4.90;;
4986;SDS011;12674;51.500;7.552;2024-03-17T04:41:51;7.37;;;5.20;;
4986;SDS011;12674;51.500;7.552;2024-03-17T04:43:53;6.40;;;5.03;;
4986;SDS011;12674;51.500;7.552;2024-03-17T04:45:59;8.77;;;5.43;;
4986;SDS011;12674;51.500;7.552;2024-03-17T04:48:01;8.27;;;5.00;;
4986;SDS011;12674;51.500;7.552;2024-03-17T04:50:05;6.23;;;4.67;;
4986;SDS011;12674;51.500;7.552;2024-03-17T04:52:06;11.13;;;5.40;;
4986;SDS011;12674;51.500;7.552;2024-03-17T04:54:09;10.43;;;5.43;;
4986;SDS011;12674;51.500;7.552;2024-03-17T04:56:10;10.57;;;5.60;;
4986;SDS011;12674;51.500;7.552;2024-03-17T04:58:12;11.97;;;6.10;;
4986;SDS011;12674;51.500;7.552;2024-03-17T05:00:15;11.37;;;5.63;;
4986;SDS011;12674;51.500;7.552;2024-03-17T05:02:18;6.90;;;5.00;;
4986;SDS011;12674;51.500;7.552;2024-03-17T05:04:20;13.90;;;5.50;;
4986;SDS011;12674;51.500;7.552;2024-03-17T05:06:23;6.90;;;6.17;;
4986;SDS011;12674;51.500;7.552;2024-03-17T05:08:25;7.63;;;5.23;;
4986;SDS011;12674;51.500;7.552;2024-03-17T05:10:26;11.43;;;6.03;;
4986;SDS011;12674;51.500;7.552;2024-03-17T05:12:28;12.70;;;5.27;;
4986;SDS011;12674;51.500;7.552;2024-03-17T05:14:30;6.47;;;5.30;;
4986;SDS011;12674;51.500;7.552;2024-03-17T05:20:07;5.80;;;4.83;;
4986;SDS011;12674;51.500;7.552;2024-03-17T05:22:12;8.87;;;5.57;;
4986;SDS011;12674;51.500;7.552;2024-03-17T05:24:14;9.97;;;4.97;;
4986;SDS011;12674;51.500;7.552;2024-03-17T05:26:16;7.53;;;5.07;;
4986;SDS011;12674;51.500;7.552;2024-03-17T05:28:18;10.90;;;5.70;;
4986;SDS011;12674;51.500;7.552;2024-03-17T05:30:20;8.10;;;5.30;;
4986;SDS011;12674;51.500;7.552;2024-03-17T05:32:22;9.33;;;5.10;;
4986;SDS011;12674;51.500;7.552;2024-03-17T05:34:24;8.60;;;6.13;;
4986;SDS011;12674;51.500;7.552;2024-03-17T05:36:24;12.93;;;6.37;;
4986;SDS011;12674;51.500;7.552;2024-03-17T05:38:28;16.47;;;5.90;;
4986;SDS011;12674;51.500;7.552;2024-03-17T05:40:30;6.73;;;6.00;;
4986;SDS011;12674;51.500;7.552;2024-03-17T05:42:32;9.03;;;6.10;;
4986;SDS011;12674;51.500;7.552;2024-03-17T05:44:34;8.23;;;6.23;;
4986;SDS011;12674;51.500;7.552;2024-03-17T05:46:50;18.63;;;6.63;;
4986;SDS011;12674;51.500;7.552;2024-03-17T05:48:54;10.93;;;6.40;;
4986;SDS011;12674;51.500;7.552;2024-03-17T05:50:55;10.20;;;5.50;;
4986;SDS011;12674;51.500;7.552;2024-03-17T05:52:57;9.60;;;5.73;;
4986;SDS011;12674;51.500;7.552;2024-03-17T05:54:59;10.03;;;5.97;;
4986;SDS011;12674;51.500;7.552;2024-03-17T05:57:01;11.80;;;6.13;;
4986;SDS011;12674;51.500;7.552;2024-03-17T05:59:04;8.30;;;6.13;;
4986;SDS011;12674;51.500;7.552;2024-03-17T06:01:06;12.10;;;6.20;;
4986;SDS011;12674;51.500;7.552;2024-03-17T06:03:08;12.23;;;7.10;;
4986;SDS011;12674;51.500;7.552;2024-03-17T06:05:10;30.37;;;7.77;;
4986;SDS011;12674;51.500;7.552;2024-03-17T06:07:14;11.53;;;6.83;;
4986;SDS011;12674;51.500;7.552;2024-03-17T06:09:16;11.97;;;7.90;;
4986;SDS011;12674;51.500;7.552;2024-03-17T06:11:21;11.33;;;6.23;;
4986;SDS011;12674;51.500;7.552;2024-03-17T06:13:23;13.63;;;7.40;;
4986;SDS011;12674;51.500;7.552;2024-03-17T06:15:25;9.60;;;7.27;;
4986;SDS011;12674;51.500;7.552;2024-03-17T06:17:27;9.33;;;7.00;;
4986;SDS011;12674;51.500;7.552;2024-03-17T06:19:30;9.63;;;6.40;;
4986;SDS011;12674;51.500;7.552;2024-03-17T06:21:32;9.53;;;6.90;;
4986;SDS011;12674;51.500;7.552;2024-03-17T06:23:33;13.40;;;7.00;;
4986;SDS011;12674;51.500;7.552;2024-03-17T06:25:37;9.13;;;6.53;;
4986;SDS011;12674;51.500;7.552;2024-03-17T06:27:41;13.57;;;6.60;;
4986;SDS011;12674;51.500;7.552;2024-03-17T06:29:43;18.20;;;8.00;;
4986;SDS011;12674;51.500;7.552;2024-03-17T06:31:46;17.53;;;7.37;;
4986;SDS011;12674;51.500;7.552;2024-03-17T06:33:48;17.23;;;7.77;;
4986;SDS011;12674;51.500;7.552;2024-03-17T06:35:50;9.13;;;7.23;;
4986;SDS011;12674;51.500;7.552;2024-03-17T06:37:51;11.20;;;7.83;;
4986;SDS011;12674;51.500;7.552;2024-03-17T06:39:54;16.83;;;7.70;;
4986;SDS011;12674;51.500;7.552;2024-03-17T06:41:56;12.07;;;7.90;;
4986;SDS011;12674;51.500;7.552;2024-03-17T06:43:59;12.73;;;7.20;;
4986;SDS011;12674;51.500;7.552;2024-03-17T06:46:01;10.33;;;6.87;;
4986;SDS011;12674;51.500;7.552;2024-03-17T06:48:04;14.87;;;8.03;;
4986;SDS011;12674;51.500;7.552;2024-03-17T06:50:07;13.60;;;7.77;;
4986;SDS011;12674;51.500;7.552;2024-03-17T06:52:10;16.57;;;7.60;;
4986;SDS011;12674;51.500;7.552;2024-03-17T06:54:11;9.83;;;8.27;;
4986;SDS011;12674;51.500;7.552;2024-03-17T06:56:13;8.83;;;7.63;;
4986;SDS011;12674;51.500;7.552;2024-03-17T06:58:15;9.03;;;7.07;;
4986;SDS011;12674;51.500;7.552;2024-03-17T07:00:20;11.00;;;7.77;;
4986;SDS011;12674;51.500;7.552;2024-03-17T07:02:25;17.83;;;7.93;;
4986;SDS011;12674;51.500;7.552;2024-03-17T07:04:27;8.30;;;7.37;;
4986;SDS011;12674;51.500;7.552;2024-03-17T07:06:28;15.10;;;7.23;;
4986;SDS011;12674;51.500;7.552;2024-03-17T07:08:30;19.13;;;8.33;;
4986;SDS011;12674;51.500;7.552;2024-03-17T07:10:33;16.80;;;8.07;;
4986;SDS011;12674;51.500;7.552;2024-03-17T07:12:34;14.23;;;7.73;;
4986;SDS011;12674;51.500;7.552;2024-03-17T07:14:36;11.47;;;7.73;;
4986;SDS011;12674;51.500;7.552;2024-03-17T07:16:39;13.67;;;7.97;;
4986;SDS011;12674;51.500;7.552;2024-03-17T07:18:41;7.90;;;6.83;;
4986;SDS011;12674;51.500;7.552;2024-03-17T07:20:44;9.43;;;6.67;;
4986;SDS011;12674;51.500;7.552;2024-03-17T07:22:48;10.23;;;6.40;;
4986;SDS011;12674;51.500;7.552;2024-03-17T07:24:50;10.00;;;6.80;;
4986;SDS011;12674;51.500;7.552;2024-03-17T07:26:56;12.50;;;7.30;;
4986;SDS011;12674;51.500;7.552;2024-03-17T07:28:57;10.30;;;6.70;;
4986;SDS011;12674;51.500;7.552;2024-03-17T07:30:59;10.47;;;6.80;;
4986;SDS011;12674;51.500;7.552;2024-03-17T07:33:03;11.03;;;6.90;;
4986;SDS011;12674;51.500;7.552;2024-03-17T07:35:04;10.83;;;6.80;;
4986;SDS011;12674;51.500;7.552;2024-03-17T07:37:07;9.90;;;7.35;;
4986;SDS011;12674;51.500;7.552;2024-03-17T07:39:10;8.38;;;5.63;;
4986;SDS011;12674;51.500;7.552;2024-03-17T07:41:12;9.80;;;6.28;;
4986;SDS011;12674;51.500;7.552;2024-03-17T07:43:14;17.38;;;6.90;;
4986;SDS011;12674;51.500;7.552;2024-03-17T07:45:15;11.30;;;7.25;;
4986;SDS011;12674;51.500;7.552;2024-03-17T07:47:18;11.30;;;7.22;;
4986;SDS011;12674;51.500;7.552;2024-03-17T07:49:22;14.18;;;7.05;;
4986;SDS011;12674;51.500;7.552;2024-03-17T07:51:24;9.23;;;6.70;;
4986;SDS011;12674;51.500;7.552;2024-03-17T07:53:26;13.10;;;7.10;;
4986;SDS011;12674;51.500;7.552;2024-03-17T07:55:28;11.40;;;7.07;;
4986;SDS011;12674;51.500;7.552;2024-03-17T07:57:31;9.33;;;6.60;;
4986;SDS011;12674;51.500;7.552;2024-03-17T07:59:33;10.93;;;6.63;;
4986;SDS011;12674;51.500;7.552;2024-03-17T08:01:34;10.87;;;6.00;;
4986;SDS011;12674;51.500;7.552;2024-03-17T08:03:37;8.20;;;5.83;;
4986;SDS011;12674;51.500;7.552;2024-03-17T08:05:41;15.43;;;6.47;;
4986;SDS011;12674;51.500;7.552;2024-03-17T08:07:42;9.70;;;5.27;;
4986;SDS011;12674;51.500;7.552;2024-03-17T08:09:45;9.60;;;5.77;;
4986;SDS011;12674;51.500;7.552;2024-03-17T08:11:47;10.13;;;5.90;;
4986;SDS011;12674;51.500;7.552;2024-03-17T08:13:50;7.20;;;5.73;;
4986;SDS011;12674;51.500;7.552;2024-03-17T08:15:55;7.53;;;5.47;;
4986;SDS011;12674;51.500;7.552;2024-03-17T08:17:56;10.13;;;5.67;;
4986;SDS011;12674;51.500;7.552;2024-03-17T08:19:58;8.43;;;4.40;;
4986;SDS011;12674;51.500;7.552;2024-03-17T08:22:02;11.57;;;4.67;;
4986;SDS011;12674;51.500;7.552;2024-03-17T08:24:05;8.40;;;5.20;;
4986;SDS011;12674;51.500;7.552;2024-03-17T08:26:07;9.10;;;5.03;;
4986;SDS011;12674;51.500;7.552;2024-03-17T08:28:10;5.57;;;4.73;;
4986;SDS011;12674;51.500;7.552;2024-03-17T08:30:12;7.40;;;5.30;;
4986;SDS011;12674;51.500;7.552;2024-03-17T08:32:14;7.17;;;4.77;;
4986;SDS011;12674;51.500;7.552;2024-03-17T08:34:17;9.03;;;4.53;;
4986;SDS011;12674;51.500;7.552;2024-03-17T08:36:19;6.23;;;4.67;;
4986;SDS011;12674;51.500;7.552;2024-03-17T08:38:23;9.80;;;5.10;;
4986;SDS011;12674;51.500;7.552;2024-03-17T08:40:24;10.43;;;5.10;;
4986;SDS011;12674;51.500;7.552;2024-03-17T08:42:26;8.00;;;4.53;;
4986;SDS011;12674;51.500;7.552;2024-03-17T08:44:28;5.00;;;4.07;;
4986;SDS011;12674;51.500;7.552;2024-03-17T08:46:30;7.43;;;4.50;;
4986;SDS011;12674;51.500;7.552;2024-03-17T08:48:33;6.10;;;4.50;;
4986;SDS011;12674;51.500;7.552;2024-03-17T08:50:35;7.80;;;5.00;;
4986;SDS011;12674;51.500;7.552;2024-03-17T08:52:37;9.20;;;5.00;;
4986;SDS011;12674;51.500;7.552;2024-03-17T08:54:40;8.90;;;4.77;;
4986;SDS011;12674;51.500;7.552;2024-03-17T08:56:42;12.50;;;4.27;;
4986;SDS011;12674;51.500;7.552;2024-03-17T08:58:44;8.13;;;5.00;;
4986;SDS011;12674;51.500;7.552;2024-03-17T09:00:47;7.50;;;4.40;;
4986;SDS011;12674;51.500;7.552;2024-03-17T09:02:49;4.73;;;4.10;;
4986;SDS011;12674;51.500;7.552;2024-03-17T09:04:51;6.30;;;3.90;;
4986;SDS011;12674;51.500;7.552;2024-03-17T09:06:52;6.43;;;3.90;;
4986;SDS011;12674;51.500;7.552;2024-03-17T09:08:56;6.00;;;4.07;;
4986;SDS011;12674;51.500;7.552;2024-03-17T09:10:59;6.43;;;4.27;;
4986;SDS011;12674;51.500;7.552;2024-03-17T09:13:01;5.43;;;3.57;;
4986;SDS011;12674;51.500;7.552;2024-03-17T09:15:03;6.13;;;3.10;;
4986;SDS011;12674;51.500;7.552;2024-03-17T09:17:06;5.13;;;4.03;;
4986;SDS011;12674;51.500;7.552;2024-03-17T09:19:08;5.90;;;3.67;;
4986;SDS011;12674;51.500;7.552;2024-03-17T09:21:10;9.93;;;3.50;;
4986;SDS011;12674;51.500;7.552;2024-03-17T09:23:13;5.53;;;3.40;;
4986;SDS011;12674;51.500;7.552;2024-03-17T09:25:15;5.13;;;2.70;;
4986;SDS011;12674;51.500;7.552;2024-03-17T09:27:19;7.53;;;3.95;;
4986;SDS011;12674;51.500;7.552;2024-03-17T09:29:22;4.30;;;3.33;;
4986;SDS011;12674;51.500;7.552;2024-03-17T09:31:25;6.22;;;3.13;;
4986;SDS011;12674;51.500;7.552;2024-03-17T09:33:27;6.18;;;3.42;;
4986;SDS011;12674;51.500;7.552;2024-03-17T09:35:29;6.57;;;3.70;;
4986;SDS011;12674;51.500;7.552;2024-03-17T09:37:31;3.88;;;3.17;;
4986;SDS011;12674;51.500;7.552;2024-03-17T09:39:33;5.97;;;3.08;;
4986;SDS011;12674;51.500;7.552;2024-03-17T09:41:35;5.22;;;3.20;;
4986;SDS011;12674;51.500;7.552;2024-03-17T09:43:41;4.40;;;2.80;;
4986;SDS011;12674;51.500;7.552;2024-03-17T09:45:44;6.60;;;3.42;;
4986;SDS011;12674;51.500;7.552;2024-03-17T09:47:45;5.22;;;3.38;;
4986;SDS011;12674;51.500;7.552;2024-03-17T09:49:47;4.88;;;3.17;;
4986;SDS011;12674;51.500;7.552;2024-03-17T09:51:49;4.35;;;2.90;;
4986;SDS011;12674;51.500;7.552;2024-03-17T09:53:54;5.30;;;2.72;;
4986;SDS011;12674;51.500;7.552;2024-03-17T09:55:58;6.28;;;2.90;;
4986;SDS011;12674;51.500;7.552;2024-03-17T09:58:00;5.72;;;2.88;;
4986;SDS011;12674;51.500;7.552;2024-03-17T10:00:03;5.40;;;3.05;;
4986;SDS011;12674;51.500;7.552;2024-03-17T10:02:14;4.45;;;2.83;;
4986;SDS011;12674;51.500;7.552;2024-03-17T10:04:30;6.07;;;2.92;;
4986;SDS011;12674;51.500;7.552;2024-03-17T10:06:33;5.15;;;3.05;;
4986;SDS011;12674;51.500;7.552;2024-03-17T10:08:38;4.45;;;2.58;;
4986;SDS011;12674;51.500;7.552;2024-03-17T10:10:41;4.60;;;3.00;;
4986;SDS011;12674;51.500;7.552;2024-03-17T10:12:43;5.43;;;2.95;;
4986;SDS011;12674;51.500;7.552;2024-03-17T10:14:45;8.30;;;3.35;;
4986;SDS011;12674;51.500;7.552;2024-03-17T10:17:00;10.13;;;3.30;;
4986;SDS011;12674;51.500;7.552;2024-03-17T10:19:05;4.55;;;2.58;;
4986;SDS011;12674;51.500;7.552;2024-03-17T10:21:11;5.13;;;2.88;;
4986;SDS011;12674;51.500;7.552;2024-03-17T10:23:26;6.82;;;3.00;;
4986;SDS011;12674;51.500;7.552;2024-03-17T10:25:29;4.40;;;2.78;;
4986;SDS011;12674;51.500;7.552;2024-03-17T10:27:31;9.88;;;3.55;;
4986;SDS011;12674;51.500;7.552;2024-03-17T10:29:34;3.97;;;2.78;;
4986;SDS011;12674;51.500;7.552;2024-03-17T10:31:38;5.85;;;3.22;;
4986;SDS011;12674;51.500;7.552;2024-03-17T10:33:41;3.90;;;3.03;;
4986;SDS011;12674;51.500;7.552;2024-03-17T10:35:43;4.35;;;2.85;;
4986;SDS011;12674;51.500;7.552;2024-03-17T10:37:53;10.35;;;3.85;;
4986;SDS011;12674;51.500;7.552;2024-03-17T10:39:54;6.47;;;2.95;;
4986;SDS011;12674;51.500;7.552;2024-03-17T10:41:56;3.28;;;2.95;;
4986;SDS011;12674;51.500;7.552;2024-03-17T10:44:00;4.05;;;3.00;;
4986;SDS011;12674;51.500;7.552;2024-03-17T10:46:02;4.80;;;2.65;;
4986;SDS011;12674;51.500;7.552;2024-03-17T10:48:06;6.97;;;3.00;;
4986;SDS011;12674;51.500;7.552;2024-03-17T10:50:12;5.60;;;2.33;;
4986;SDS011;12674;51.500;7.552;2024-03-17T10:52:17;4.97;;;2.60;;
4986;SDS011;12674;51.500;7.552;2024-03-17T10:54:21;6.80;;;3.10;;
4986;SDS011;12674;51.500;7.552;2024-03-17T10:56:27;7.22;;;2.80;;
4986;SDS011;12674;51.500;7.552;2024-03-17T10:58:32;3.35;;;2.28;;
4986;SDS011;12674;51.500;7.552;2024-03-17T11:00:35;5.30;;;2.67;;
4986;SDS011;12674;51.500;7.552;2024-03-17T11:02:38;2.55;;;2.35;;
4986;SDS011;12674;51.500;7.552;2024-03-17T11:04:41;3.05;;;2.50;;
4986;SDS011;12674;51.500;7.552;2024-03-17T11:06:45;6.93;;;2.30;;
4986;SDS011;12674;51.500;7.552;2024-03-17T11:08:48;2.20;;;2.00;;
4986;SDS011;12674;51.500;7.552;2024-03-17T11:10:51;4.60;;;2.22;;
4986;SDS011;12674;51.500;7.552;2024-03-17T11:12:55;7.97;;;4.40;;
4986;SDS011;12674;51.500;7.552;2024-03-17T11:17:34;5.32;;;2.67;;
4986;SDS011;12674;51.500;7.552;2024-03-17T11:19:36;3.83;;;2.05;;
4986;SDS011;12674;51.500;7.552;2024-03-17T11:21:38;4.03;;;2.08;;
4986;SDS011;12674;51.500;7.552;2024-03-17T11:23:42;4.22;;;3.03;;
4986;SDS011;12674;51.500;7.552;2024-03-17T11:25:44;3.40;;;2.40;;
4986;SDS011;12674;51.500;7.552;2024-03-17T11:27:53;5.28;;;2.42;;
4986;SDS011;12674;51.500;7.552;2024-03-17T11:29:55;3.28;;;2.10;;
4986;SDS011;12674;51.500;7.552;2024-03-17T11:31:57;3.40;;;2.28;;
4986;SDS011;12674;51.500;7.552;2024-03-17T11:33:59;6.70;;;2.50;;
4986;SDS011;12674;51.500;7.552;2024-03-17T11:38:51;7.53;;;2.92;;
4986;SDS011;12674;51.500;7.552;2024-03-17T11:40:53;6.35;;;2.42;;
4986;SDS011;12674;51.500;7.552;2024-03-17T11:43:32;3.38;;;2.78;;
4986;SDS011;12674;51.500;7.552;2024-03-17T11:45:33;5.05;;;3.05;;
4986;SDS011;12674;51.500;7.552;2024-03-17T11:47:36;11.73;;;3.40;;
4986;SDS011;12674;51.500;7.552;2024-03-17T11:49:39;5.43;;;3.30;;
4986;SDS011;12674;51.500;7.552;2024-03-17T11:51:44;6.45;;;2.80;;
4986;SDS011;12674;51.500;7.552;2024-03-17T11:53:46;4.65;;;2.60;;
4986;SDS011;12674;51.500;7.552;2024-03-17T11:56:01;6.70;;;2.95;;
4986;SDS011;12674;51.500;7.552;2024-03-17T11:58:05;3.10;;;2.38;;
4986;SDS011;12674;51.500;7.552;2024-03-17T12:00:20;7.00;;;2.85;;
4986;SDS011;12674;51.500;7.552;2024-03-17T12:02:25;4.82;;;2.80;;
4986;SDS011;12674;51.500;7.552;2024-03-17T12:04:26;5.20;;;2.72;;
4986;SDS011;12674;51.500;7.552;2024-03-17T12:06:27;3.70;;;2.90;;
4986;SDS011;12674;51.500;7.552;2024-03-17T12:08:29;12.35;;;3.60;;
4986;SDS011;12674;51.500;7.552;2024-03-17T12:10:32;5.85;;;2.70;;
4986;SDS011;12674;51.500;7.552;2024-03-17T12:12:34;7.25;;;2.50;;
4986;SDS011;12674;51.500;7.552;2024-03-17T12:14:35;9.68;;;3.17;;
4986;SDS011;12674;51.500;7.552;2024-03-17T12:16:38;6.35;;;3.03;;
4986;SDS011;12674;51.500;7.552;2024-03-17T12:18:48;5.40;;;2.50;;
4986;SDS011;12674;51.500;7.552;2024-03-17T12:20:50;4.05;;;2.28;;
4986;SDS011;12674;51.500;7.552;2024-03-17T12:22:51;4.68;;;2.60;;
4986;SDS011;12674;51.500;7.552;2024-03-17T12:24:55;3.03;;;2.58;;
4986;SDS011;12674;51.500;7.552;2024-03-17T12:26:58;4.65;;;2.63;;
4986;SDS011;12674;51.500;7.552;2024-03-17T12:29:01;3.25;;;2.60;;
4986;SDS011;12674;51.500;7.552;2024-03-17T12:31:02;8.43;;;3.33;;
4986;SDS011;12674;51.500;7.552;2024-03-17T12:33:04;4.45;;;2.28;;
4986;SDS011;12674;51.500;7.552;2024-03-17T12:35:10;6.70;;;3.05;;
4986;SDS011;12674;51.500;7.552;2024-03-17T12:37:15;4.57;;;2.70;;